首页
METAR-TAF:

METAR-TAF

机场 :

科威特國際機場

科威特, 科威特

纬度: 29-13N, 经度: 047-59E, 海拔: 55米

当前天气观测

该预报发布于31分钟前的19:00 UTC
风速8节,风向东北
温度 22°C
湿度 88%
气压 1013 hPa
能見度: 8000
散云层高于2500英尺, 积雨云.
阴天层高于8000英尺
雷暴, 小雨

METAR: OKBK 151900Z 05008KT 8000 -TSRA SCT025CB OVC080 22/20 Q1013 NOSIG

时间: 22:31 (19:31 UTC)

预报

该预报发布于2小时和46分钟前的16:45 UTC
预报有效从15日的 18点(UTC)到 16日的 24点(UTC)
风速10节,风向东转东南,有时为20节阵风
能見度: 7000
散云层高于4000英尺
多云层高于8000英尺
短暂存在
从 15日的 18点(UTC)到 16日的 03点(UTC)
能見度: 3000
少量云层高于3000英尺, 积雨云.
雷暴, 小雨

TAF: OKBK 151645Z 1518/1624 12010G20KT 7000 SCT040 BKN080 TEMPO 1518/1603 3000 -TSRA FEW030CB

超过4000个机场的气象观测和天气预报(METAR&TAF报告)。

可查询的气象台以黄色和红色小点在地图上表示。

将鼠标移到小点上方,可查看气象台名称。

然后点击查看天气观测和预报。

如需切换地图:点击带黑十字的绿色按钮放大地图;点击带横线的绿色按钮缩小地图;或者点击绿色箭头查看邻近地区的地图。


METAR-TAF: